createdAt,value
2023-03-28T16:11:57.698Z,12.77
2023-03-28T16:12:09.696Z,12.76
2023-03-28T16:12:18.788Z,12.69
2023-03-28T16:12:28.966Z,12.61
2023-03-28T16:12:39.018Z,12.54
2023-03-28T16:12:49.084Z,12.44
2023-03-28T16:12:59.287Z,12.40
2023-03-28T16:13:18.616Z,12.23
2023-03-28T16:13:30.067Z,12.18
2023-03-28T16:13:40.082Z,12.08
2023-03-28T16:13:50.253Z,12.04
2023-03-28T16:14:00.352Z,12.01
2023-03-28T16:14:10.231Z,11.98
2023-03-28T16:14:20.401Z,11.98
2023-03-28T16:14:30.617Z,11.96
2023-03-28T16:14:40.643Z,11.94
2023-03-28T16:14:50.938Z,11.93
2023-03-28T16:15:02.043Z,11.90
2023-03-28T16:15:11.165Z,11.87
2023-03-28T16:15:21.239Z,11.85
2023-03-28T16:15:31.393Z,11.84
2023-03-28T16:15:41.475Z,11.82
2023-03-28T16:15:51.766Z,11.82
2023-03-28T16:16:11.891Z,11.82
2023-03-28T16:16:22.942Z,11.81
2023-03-28T16:16:32.138Z,11.82
2023-03-28T16:16:42.213Z,11.81
2023-03-28T16:16:52.449Z,11.81
2023-03-28T16:17:02.495Z,11.81
2023-03-28T16:17:12.718Z,11.79
2023-03-28T16:17:23.833Z,11.79
2023-03-28T16:17:32.943Z,11.79
2023-03-28T16:17:43.866Z,11.77
2023-03-28T16:17:53.150Z,11.75
2023-03-28T16:18:03.287Z,11.74
2023-03-28T16:18:13.399Z,11.72
2023-03-28T16:18:24.260Z,11.72
2023-03-28T16:18:33.641Z,11.72
2023-03-28T16:18:44.675Z,11.70
2023-03-28T16:18:54.424Z,11.69
2023-03-28T16:19:04.054Z,11.69
2023-03-28T16:19:14.171Z,11.70
2023-03-28T16:19:24.263Z,11.66
2023-03-28T16:19:34.309Z,11.66
2023-03-28T16:19:55.338Z,11.66
2023-03-28T16:20:04.696Z,11.64
2023-03-28T16:20:14.892Z,11.64
2023-03-28T16:20:24.957Z,11.66
2023-03-28T16:20:35.027Z,11.67
2023-03-28T16:20:45.155Z,11.64
2023-03-28T16:21:05.415Z,11.59
2023-03-28T16:21:15.671Z,11.56
2023-03-28T16:21:25.611Z,11.57
2023-03-28T16:21:35.870Z,11.56
2023-03-28T16:21:46.070Z,11.53
2023-03-28T16:21:57.890Z,11.53
2023-03-28T16:22:06.229Z,11.49
2023-03-28T16:22:16.386Z,11.49
2023-03-28T16:22:26.586Z,11.49
2023-03-28T16:22:36.542Z,11.48
2023-03-28T16:22:46.802Z,11.42
2023-03-28T16:22:56.852Z,11.38
2023-03-28T16:23:07.061Z,11.36
2023-03-28T16:23:17.043Z,11.35
2023-03-28T16:23:27.121Z,11.35
2023-03-28T16:23:37.499Z,11.35
2023-03-28T16:23:47.281Z,11.35
2023-03-28T16:23:57.514Z,11.38
2023-03-28T16:24:07.908Z,11.41
2023-03-28T16:24:18.785Z,11.42
2023-03-28T16:24:27.808Z,11.42
2023-03-28T16:24:38.063Z,11.42
2023-03-28T16:24:48.099Z,11.42
2023-03-28T16:24:58.176Z,11.42
2023-03-28T16:25:08.289Z,11.42
2023-03-28T16:25:19.450Z,11.41
2023-03-28T16:25:28.594Z,11.41
2023-03-28T16:25:38.699Z,11.42
2023-03-28T16:25:48.937Z,11.41
2023-03-28T16:25:58.990Z,11.42
2023-03-28T16:26:09.009Z,11.44
2023-03-28T16:26:29.254Z,11.46
2023-03-28T16:26:39.624Z,11.46
2023-03-28T16:26:49.564Z,11.49
2023-03-28T16:26:59.755Z,11.53
2023-03-28T16:27:09.699Z,11.57
2023-03-28T16:27:19.815Z,11.60
2023-03-28T16:27:30.033Z,11.64
2023-03-28T16:27:40.188Z,11.67
2023-03-28T16:27:50.452Z,11.67
2023-03-28T16:28:00.341Z,11.70
2023-03-28T16:28:10.456Z,11.72
2023-03-28T16:28:20.448Z,11.75
2023-03-28T16:28:31.520Z,11.77
2023-03-28T16:28:40.901Z,11.79
2023-03-28T16:28:50.840Z,11.82
2023-03-28T16:29:00.945Z,11.85
2023-03-28T16:29:11.125Z,11.88
2023-03-28T16:29:21.242Z,11.90
2023-03-28T16:29:31.627Z,11.94
2023-03-28T16:29:41.588Z,11.94
2023-03-28T16:29:51.656Z,11.96
2023-03-28T16:30:02.483Z,11.97
2023-03-28T16:30:12.096Z,12.00
2023-03-28T16:30:22.076Z,12.01
2023-03-28T16:30:32.167Z,12.01
2023-03-28T16:30:42.421Z,12.01
2023-03-28T16:30:52.761Z,12.04
2023-03-28T16:31:12.696Z,12.08
2023-03-28T16:31:22.809Z,12.13
2023-03-28T16:31:33.749Z,12.15
2023-03-28T16:31:43.398Z,12.18
2023-03-28T16:31:53.283Z,12.19
2023-03-28T16:32:03.290Z,12.26
2023-03-28T16:32:13.354Z,12.31
2023-03-28T16:32:23.619Z,12.38
2023-03-28T16:32:44.031Z,12.46
2023-03-28T16:32:53.945Z,12.54
2023-03-28T16:33:04.012Z,12.56
2023-03-28T16:33:14.075Z,12.56
2023-03-28T16:33:24.176Z,12.56
2023-03-28T16:33:34.294Z,12.56
2023-03-28T16:33:44.373Z,12.55
2023-03-28T16:33:54.404Z,12.54
2023-03-28T16:34:06.014Z,12.51
2023-03-28T16:34:14.652Z,12.48
2023-03-28T16:34:24.770Z,12.48
2023-03-28T16:34:34.979Z,12.48
2023-03-28T16:34:45.098Z,12.51
2023-03-28T16:34:55.200Z,12.52
2023-03-28T16:35:05.273Z,12.48
2023-03-28T16:35:15.546Z,12.43
2023-03-28T16:35:25.616Z,12.41
2023-03-28T16:35:35.728Z,12.40
2023-03-28T16:35:45.803Z,12.40
2023-03-28T16:35:56.015Z,12.41
2023-03-28T16:36:06.147Z,12.44
2023-03-28T16:36:16.029Z,12.48
2023-03-28T16:36:26.208Z,12.52
2023-03-28T16:36:36.336Z,12.54
2023-03-28T16:36:46.465Z,12.56
2023-03-28T16:36:56.724Z,12.56
2023-03-28T16:37:06.808Z,12.58
2023-03-28T16:37:16.879Z,12.56
2023-03-28T16:37:27.423Z,12.58
2023-03-28T16:37:37.354Z,12.62
2023-03-28T16:37:47.361Z,12.67
2023-03-28T16:37:57.418Z,12.70
2023-03-28T16:38:07.587Z,12.71
2023-03-28T16:38:17.742Z,12.70
2023-03-28T16:38:27.892Z,12.67
2023-03-28T16:38:38.036Z,12.62
2023-03-28T16:38:48.058Z,12.59
2023-03-28T16:38:58.227Z,12.51
2023-03-28T16:39:08.234Z,12.46
2023-03-28T16:39:18.552Z,12.41
2023-03-28T16:39:28.464Z,12.37
2023-03-28T16:39:38.579Z,12.26
2023-03-28T16:39:49.518Z,12.16
2023-03-28T16:39:59.238Z,12.11
2023-03-28T16:40:09.003Z,12.03
2023-03-28T16:40:19.205Z,12.00
2023-03-28T16:40:29.337Z,11.88
2023-03-28T16:40:39.480Z,11.77
2023-03-28T16:40:50.746Z,11.74
2023-03-28T16:40:59.664Z,11.62
2023-03-28T16:41:10.347Z,11.59
2023-03-28T16:41:19.818Z,11.59
2023-03-28T16:41:30.049Z,11.57
2023-03-28T16:41:40.075Z,11.53
2023-03-28T16:42:00.347Z,11.53
2023-03-28T16:42:10.427Z,11.54
2023-03-28T16:42:20.665Z,11.53
2023-03-28T16:42:30.635Z,11.51
2023-03-28T16:42:40.670Z,11.53
2023-03-28T16:42:50.951Z,11.51
2023-03-28T16:43:01.051Z,11.45
2023-03-28T16:43:11.315Z,11.39
2023-03-28T16:43:21.430Z,11.30
2023-03-28T16:43:31.577Z,11.30
2023-03-28T16:43:41.676Z,11.30
2023-03-28T16:43:51.751Z,11.30
2023-03-28T16:44:01.794Z,11.33
2023-03-28T16:44:11.851Z,11.33
2023-03-28T16:44:22.120Z,11.36
2023-03-28T16:44:32.366Z,11.36
2023-03-28T16:44:42.343Z,11.38
2023-03-28T16:44:52.444Z,11.38
2023-03-28T16:45:03.530Z,11.36
2023-03-28T16:45:12.752Z,11.38
2023-03-28T16:45:22.890Z,11.39
2023-03-28T16:45:33.062Z,11.41
2023-03-28T16:45:43.110Z,11.42
2023-03-28T16:45:53.246Z,11.42
2023-03-28T16:46:12.763Z,11.44
2023-03-28T16:46:24.257Z,11.45
2023-03-28T16:46:33.772Z,11.46
2023-03-28T16:46:44.349Z,11.45
2023-03-28T16:46:53.908Z,11.46
2023-03-28T16:47:03.917Z,11.46
2023-03-28T16:47:14.157Z,11.48
2023-03-28T16:47:33.332Z,11.48
2023-03-28T16:47:44.586Z,11.51
2023-03-28T16:47:54.677Z,11.49
2023-03-28T16:48:05.137Z,11.49
2023-03-28T16:48:14.887Z,11.49
2023-03-28T16:48:24.949Z,11.51
2023-03-28T16:48:35.217Z,11.49
2023-03-28T16:48:45.221Z,11.51
2023-03-28T16:48:55.335Z,11.53
2023-03-28T16:49:06.272Z,11.53
2023-03-28T16:49:15.700Z,11.53
2023-03-28T16:49:25.854Z,11.53
2023-03-28T16:49:35.926Z,11.53
2023-03-28T16:49:46.145Z,11.51
2023-03-28T16:49:56.213Z,11.48
2023-03-28T16:50:06.286Z,11.48
2023-03-28T16:50:16.387Z,11.48
2023-03-28T16:50:26.747Z,11.49
2023-03-28T16:50:37.485Z,11.51
2023-03-28T16:50:46.673Z,11.51
2023-03-28T16:50:56.794Z,11.54
2023-03-28T16:51:06.956Z,11.54
2023-03-28T16:51:17.194Z,11.56
2023-03-28T16:51:27.313Z,11.56
2023-03-28T16:51:47.900Z,11.57
2023-03-28T16:51:57.856Z,11.59
2023-03-28T16:52:07.875Z,11.59
2023-03-28T16:52:18.036Z,11.60
2023-03-28T16:52:29.937Z,11.57
2023-03-28T16:52:38.399Z,11.56
2023-03-28T16:52:48.467Z,11.53
2023-03-28T16:52:58.470Z,11.51
2023-03-28T16:53:08.576Z,11.48
2023-03-28T16:53:18.758Z,11.44
2023-03-28T16:53:29.054Z,11.41
2023-03-28T16:53:38.988Z,11.36
2023-03-28T16:53:49.232Z,11.31
2023-03-28T16:53:59.236Z,11.27
2023-03-28T16:54:09.407Z,11.24
2023-03-28T16:54:19.537Z,11.19
2023-03-28T16:54:29.770Z,11.13
2023-03-28T16:54:39.759Z,11.09
2023-03-28T16:54:49.925Z,11.05
2023-03-28T16:55:00.099Z,10.95
2023-03-28T16:55:10.148Z,10.93
2023-03-28T16:55:20.337Z,10.93
2023-03-28T16:55:30.405Z,10.91
2023-03-28T16:55:40.568Z,10.91
2023-03-28T16:55:50.703Z,10.93
2023-03-28T16:56:00.999Z,10.91
2023-03-28T16:56:10.896Z,10.91
2023-03-28T16:56:21.821Z,10.88
2023-03-28T16:56:31.239Z,10.87
2023-03-28T16:56:41.314Z,10.84
2023-03-28T16:56:52.632Z,10.83
2023-03-28T16:57:01.563Z,10.81
2023-03-28T16:57:11.689Z,10.78
2023-03-28T16:57:31.924Z,10.76
2023-03-28T16:57:42.022Z,10.76
2023-03-28T16:57:52.143Z,10.76
2023-03-28T16:58:02.278Z,10.76
2023-03-28T16:58:12.560Z,10.75
2023-03-28T16:58:22.628Z,10.72
2023-03-28T16:58:32.659Z,10.72
2023-03-28T16:58:42.600Z,10.73
2023-03-28T16:58:52.955Z,10.70
2023-03-28T16:59:03.968Z,10.69
2023-03-28T16:59:13.189Z,10.69
2023-03-28T16:59:23.281Z,10.70
2023-03-28T16:59:33.420Z,10.72
2023-03-28T16:59:43.581Z,10.73
2023-03-28T16:59:53.715Z,10.73
2023-03-28T17:00:14.064Z,10.76
2023-03-28T17:00:24.077Z,10.76
2023-03-28T17:00:34.468Z,10.76
2023-03-28T17:00:44.426Z,10.78
2023-03-28T17:00:54.525Z,10.80
2023-03-28T17:01:05.789Z,10.78
2023-03-28T17:01:14.713Z,10.78
2023-03-28T17:01:25.583Z,10.78
2023-03-28T17:01:34.909Z,10.78
2023-03-28T17:01:45.070Z,10.76
2023-03-28T17:01:55.316Z,10.76
2023-03-28T17:02:15.711Z,10.78
2023-03-28T17:02:25.660Z,10.76
2023-03-28T17:02:35.837Z,10.75
2023-03-28T17:02:45.926Z,10.73
2023-03-28T17:02:56.037Z,10.73
